createdAt,value
2018-12-04T00:02:23.103Z,5.37
2018-12-04T00:05:27.622Z,5.67
2018-12-04T00:08:32.161Z,6.40
2018-12-04T00:11:36.664Z,2.70
2018-12-04T00:14:41.110Z,5.50
2018-12-04T00:17:45.640Z,3.33
2018-12-04T00:20:50.222Z,5.00
2018-12-04T00:23:54.711Z,4.50
2018-12-04T00:26:59.543Z,3.53
2018-12-04T00:30:05.349Z,3.70
2018-12-04T00:33:09.882Z,5.20
2018-12-04T00:36:14.429Z,2.13
2018-12-04T00:39:19.015Z,3.83
2018-12-04T00:42:23.547Z,1.90
2018-12-04T00:45:28.188Z,3.63
2018-12-04T00:48:32.677Z,2.13
2018-12-04T00:51:37.450Z,5.17
2018-12-04T00:54:41.987Z,4.67
2018-12-04T00:57:46.503Z,3.50
2018-12-04T01:00:50.997Z,2.27
2018-12-04T01:03:55.644Z,4.67
2018-12-04T01:07:00.169Z,3.03
2018-12-04T01:10:06.684Z,2.47
2018-12-04T01:13:11.280Z,6.17
2018-12-04T01:16:15.762Z,3.13
2018-12-04T01:19:20.385Z,3.20
2018-12-04T01:22:24.930Z,3.20
2018-12-04T01:25:29.565Z,3.63
2018-12-04T01:28:34.254Z,3.30
2018-12-04T01:31:38.742Z,2.33
2018-12-04T01:34:43.363Z,3.37
2018-12-04T01:37:48.029Z,4.13
2018-12-04T01:40:52.693Z,3.57
2018-12-04T01:43:57.497Z,2.57
2018-12-04T01:47:02.521Z,3.07
2018-12-04T01:50:07.364Z,4.40
2018-12-04T01:53:11.947Z,4.00
2018-12-04T01:56:16.609Z,3.10
2018-12-04T01:59:21.165Z,3.50
2018-12-04T02:02:25.662Z,3.93
2018-12-04T02:05:30.180Z,4.33
2018-12-04T02:08:34.712Z,1.83
2018-12-04T02:11:39.256Z,3.93
2018-12-04T02:14:43.844Z,4.40
2018-12-04T02:17:48.515Z,4.17
2018-12-04T02:20:54.016Z,3.20
2018-12-04T02:23:58.530Z,3.03
2018-12-04T02:27:03.049Z,3.57
2018-12-04T02:30:09.888Z,2.80
2018-12-04T02:33:14.406Z,2.03
2018-12-04T02:36:18.965Z,2.40
2018-12-04T02:39:23.717Z,4.47
2018-12-04T02:42:28.356Z,3.47
2018-12-04T02:45:32.786Z,2.57
2018-12-04T02:48:37.445Z,4.80
2018-12-04T02:51:42.096Z,3.90
2018-12-04T02:54:46.609Z,6.03
2018-12-04T02:57:51.249Z,4.03
2018-12-04T03:00:55.824Z,3.70
2018-12-04T03:04:00.479Z,3.17
2018-12-04T03:07:05.086Z,4.07
2018-12-04T03:10:09.836Z,3.13
2018-12-04T03:13:14.341Z,3.03
2018-12-04T03:16:18.953Z,1.93
2018-12-04T03:19:23.588Z,2.57
2018-12-04T03:22:28.095Z,4.37
2018-12-04T03:25:32.833Z,4.17
2018-12-04T03:28:37.517Z,4.90
2018-12-04T03:31:41.967Z,2.77
2018-12-04T03:34:46.539Z,1.73
2018-12-04T03:37:51.090Z,3.00
2018-12-04T03:40:55.654Z,3.43
2018-12-04T03:44:00.476Z,3.70
2018-12-04T03:47:05.154Z,2.30
2018-12-04T03:50:09.992Z,7.13
2018-12-04T03:53:14.503Z,1.93
2018-12-04T03:56:19.069Z,5.13
2018-12-04T03:59:23.611Z,3.27
2018-12-04T04:02:28.294Z,4.73
2018-12-04T04:05:32.827Z,5.10
2018-12-04T04:08:37.410Z,1.43
2018-12-04T04:11:42.025Z,3.47
2018-12-04T04:14:46.536Z,2.20
2018-12-04T04:17:51.718Z,2.13
2018-12-04T04:20:59.428Z,2.60
2018-12-04T04:24:04.024Z,3.10
2018-12-04T04:27:08.641Z,4.50
2018-12-04T04:30:13.338Z,3.00
2018-12-04T04:33:17.859Z,1.37
2018-12-04T04:36:22.446Z,3.03
2018-12-04T04:39:27.057Z,3.93
2018-12-04T04:42:31.539Z,3.67
2018-12-04T04:45:36.056Z,1.57
2018-12-04T04:48:40.643Z,4.90
2018-12-04T04:51:45.377Z,2.10
2018-12-04T04:54:49.990Z,2.53
2018-12-04T04:57:54.550Z,3.30
2018-12-04T05:00:59.082Z,2.57
2018-12-04T05:04:03.599Z,2.67
2018-12-04T05:07:08.185Z,2.07
2018-12-04T05:10:12.678Z,2.63
2018-12-04T05:13:17.148Z,1.97
2018-12-04T05:16:21.695Z,1.83
2018-12-04T05:19:26.516Z,3.10
2018-12-04T05:22:31.164Z,2.33
2018-12-04T05:25:35.678Z,3.77
2018-12-04T05:28:40.162Z,2.47
2018-12-04T05:31:44.753Z,2.63
2018-12-04T05:34:49.264Z,2.20
2018-12-04T05:37:53.790Z,2.27
2018-12-04T05:44:12.545Z,2.00
2018-12-04T05:47:17.146Z,1.43
2018-12-04T05:50:21.985Z,1.43
2018-12-04T05:53:36.096Z,2.43
2018-12-04T05:56:40.860Z,1.50
2018-12-04T05:59:45.381Z,1.47
2018-12-04T06:02:49.946Z,1.40
2018-12-04T06:05:54.434Z,2.97
2018-12-04T06:08:58.955Z,4.80
2018-12-04T06:12:03.561Z,0.87
2018-12-04T06:15:08.237Z,2.77
2018-12-04T06:18:12.654Z,1.20
2018-12-04T06:21:17.220Z,3.07
2018-12-04T06:24:21.721Z,2.33
2018-12-04T06:27:26.350Z,1.03
2018-12-04T06:30:31.038Z,2.00
2018-12-04T06:33:35.654Z,1.40
2018-12-04T06:36:40.307Z,0.87
2018-12-04T06:39:44.875Z,2.03
2018-12-04T06:42:49.373Z,0.80
2018-12-04T06:45:53.882Z,0.57
2018-12-04T06:48:58.402Z,1.23
2018-12-04T06:52:02.981Z,0.57
2018-12-04T06:55:08.956Z,1.47
2018-12-04T06:58:13.503Z,0.70
2018-12-04T07:01:18.055Z,1.07
2018-12-04T07:04:22.605Z,1.23
2018-12-04T07:07:27.144Z,1.73
2018-12-04T07:10:31.630Z,1.20
2018-12-04T07:13:36.217Z,1.00
2018-12-04T07:16:40.834Z,1.83
2018-12-04T07:19:45.359Z,2.00
2018-12-04T07:22:50.010Z,1.63
2018-12-04T07:25:54.537Z,2.80
2018-12-04T07:28:59.107Z,2.23
2018-12-04T07:32:03.748Z,3.93
2018-12-04T07:35:09.545Z,1.73
2018-12-04T07:38:14.133Z,2.50
2018-12-04T07:41:18.833Z,1.60
2018-12-04T07:44:23.344Z,2.37
2018-12-04T07:47:27.895Z,2.23
2018-12-04T07:50:32.462Z,4.93
2018-12-04T07:53:37.098Z,2.40
2018-12-04T07:56:41.711Z,2.47
2018-12-04T07:59:46.556Z,1.00
2018-12-04T08:02:51.821Z,3.43
2018-12-04T08:05:56.646Z,2.60
2018-12-04T08:09:01.336Z,2.93
2018-12-04T08:12:05.885Z,2.67
2018-12-04T08:15:10.498Z,3.00
2018-12-04T08:18:15.099Z,3.43
2018-12-04T08:21:19.690Z,1.37
2018-12-04T08:24:24.181Z,3.13
2018-12-04T08:27:34.205Z,1.67
2018-12-04T08:30:38.812Z,2.03
2018-12-04T08:33:43.499Z,3.27
2018-12-04T08:36:48.181Z,3.90
2018-12-04T08:39:52.682Z,3.00
2018-12-04T08:42:59.069Z,5.73
2018-12-04T08:46:03.668Z,5.10
2018-12-04T08:49:08.295Z,6.20
2018-12-04T08:52:12.840Z,3.87
2018-12-04T08:55:19.018Z,3.50
2018-12-04T08:58:23.875Z,4.60
2018-12-04T09:01:28.397Z,3.53
2018-12-04T09:04:33.085Z,3.23
2018-12-04T09:07:37.628Z,2.50
2018-12-04T09:10:42.245Z,4.90
2018-12-04T09:13:46.778Z,2.47
2018-12-04T09:16:51.392Z,3.93
2018-12-04T09:19:56.205Z,3.23
2018-12-04T09:23:00.972Z,5.23
2018-12-04T09:26:05.652Z,3.13
2018-12-04T09:29:10.319Z,3.63
2018-12-04T09:32:15.485Z,4.13
2018-12-04T09:35:20.039Z,6.77
2018-12-04T09:38:24.612Z,3.57
2018-12-04T09:41:29.197Z,4.77
2018-12-04T09:44:33.988Z,3.30
2018-12-04T09:47:38.735Z,3.20
2018-12-04T09:50:43.243Z,4.57
2018-12-04T09:53:52.045Z,2.70
2018-12-04T09:56:54.436Z,6.23
2018-12-04T09:59:58.902Z,4.40
2018-12-04T10:03:03.408Z,2.20
2018-12-04T10:06:08.025Z,4.77
2018-12-04T10:09:12.594Z,3.97
2018-12-04T10:12:17.280Z,8.30
2018-12-04T10:15:22.004Z,7.63
2018-12-04T10:18:26.592Z,3.20
2018-12-04T10:21:31.250Z,4.10
2018-12-04T10:24:35.848Z,3.17
2018-12-04T10:27:40.587Z,6.23
2018-12-04T10:30:49.220Z,4.67
2018-12-04T10:33:53.915Z,4.67
2018-12-04T10:36:58.443Z,5.10
2018-12-04T10:40:03.046Z,4.63
2018-12-04T10:43:07.663Z,8.03
2018-12-04T10:46:12.270Z,4.20
2018-12-04T10:49:17.013Z,4.73
2018-12-04T10:52:21.858Z,4.93
2018-12-04T10:55:26.443Z,3.60
2018-12-04T10:58:31.036Z,4.40
2018-12-04T11:01:40.587Z,8.60
2018-12-04T11:04:45.178Z,3.63
2018-12-04T11:07:49.682Z,5.33
2018-12-04T11:10:54.311Z,4.10
2018-12-04T11:13:58.905Z,4.43
2018-12-04T11:17:03.517Z,4.10
2018-12-04T11:20:10.655Z,4.50
2018-12-04T11:23:15.689Z,6.10
2018-12-04T11:26:20.327Z,4.93
2018-12-04T11:29:24.983Z,5.07
2018-12-04T11:32:29.540Z,3.47
2018-12-04T11:35:34.146Z,3.90
2018-12-04T11:38:38.667Z,2.83
2018-12-04T11:41:43.234Z,4.67
2018-12-04T11:44:47.759Z,3.60
2018-12-04T11:47:52.377Z,8.03
2018-12-04T11:51:00.233Z,5.30
2018-12-04T11:54:03.762Z,7.47
2018-12-04T11:57:08.580Z,7.13
2018-12-04T12:03:36.730Z,6.60
2018-12-04T12:06:41.455Z,6.10
2018-12-04T12:09:46.006Z,6.67
2018-12-04T12:12:50.481Z,5.17
2018-12-04T12:15:55.284Z,5.20
2018-12-04T12:18:59.945Z,4.60
2018-12-04T12:22:04.740Z,4.63
2018-12-04T12:25:09.506Z,3.83
2018-12-04T12:28:14.011Z,5.87
2018-12-04T12:31:21.093Z,5.93
2018-12-04T12:34:25.675Z,3.57
2018-12-04T12:37:30.296Z,3.37
2018-12-04T12:40:35.282Z,5.60
2018-12-04T12:43:40.149Z,4.80
2018-12-04T12:46:44.850Z,7.77
2018-12-04T12:49:49.583Z,3.03
2018-12-04T12:52:54.183Z,4.77
2018-12-04T12:55:58.881Z,4.83
2018-12-04T12:59:03.548Z,5.90
2018-12-04T13:02:08.128Z,3.80
2018-12-04T13:05:12.892Z,2.50
2018-12-04T13:08:18.166Z,3.23
2018-12-04T13:11:28.950Z,4.40
2018-12-04T13:14:34.112Z,4.43
2018-12-04T13:17:38.780Z,4.97
2018-12-04T13:20:43.350Z,6.63
2018-12-04T13:23:47.919Z,4.37
2018-12-04T13:26:52.685Z,3.20
2018-12-04T13:29:57.263Z,5.33
2018-12-04T13:33:01.819Z,8.87
2018-12-04T13:36:06.809Z,5.30
2018-12-04T13:39:12.309Z,3.93
2018-12-04T13:42:16.938Z,4.60
2018-12-04T13:45:21.554Z,4.20
2018-12-04T13:48:26.093Z,4.10
2018-12-04T13:51:30.987Z,5.30
2018-12-04T13:54:35.777Z,5.53
2018-12-04T13:57:40.457Z,2.43
2018-12-04T14:00:46.365Z,5.73
2018-12-04T14:03:56.142Z,3.53
2018-12-04T14:07:01.102Z,5.77
2018-12-04T14:10:08.623Z,7.77
2018-12-04T14:13:13.352Z,13.17
2018-12-04T14:16:17.974Z,8.00
2018-12-04T14:19:22.506Z,4.43
2018-12-04T14:22:27.227Z,8.60
2018-12-04T14:25:31.768Z,5.50
2018-12-04T14:28:36.494Z,6.33
2018-12-04T14:31:41.010Z,8.23
2018-12-04T14:34:45.938Z,5.63
2018-12-04T14:37:50.598Z,3.70
2018-12-04T14:40:55.269Z,6.93
2018-12-04T14:44:08.399Z,5.30
2018-12-04T14:47:13.072Z,3.27
2018-12-04T14:50:17.938Z,3.23
2018-12-04T14:53:22.505Z,5.20
2018-12-04T14:56:27.653Z,5.87
2018-12-04T14:59:32.352Z,3.43
2018-12-04T15:02:36.976Z,5.67
2018-12-04T15:05:41.542Z,6.10
2018-12-04T15:08:46.261Z,4.20
2018-12-04T15:11:51.016Z,5.87
2018-12-04T15:14:55.807Z,4.70
2018-12-04T15:18:00.454Z,5.70
2018-12-04T15:21:05.956Z,2.77
2018-12-04T15:24:10.630Z,6.47
2018-12-04T15:27:15.380Z,7.13
2018-12-04T15:30:20.225Z,4.23
2018-12-04T15:33:24.849Z,3.80
2018-12-04T15:36:29.600Z,7.37
2018-12-04T15:39:34.142Z,10.40
2018-12-04T15:42:38.772Z,6.07
2018-12-04T15:45:43.507Z,8.67
2018-12-04T15:48:48.135Z,17.03
2018-12-04T15:51:52.811Z,36.10
2018-12-04T15:54:57.587Z,26.50
2018-12-04T15:58:02.381Z,12.17
2018-12-04T16:01:07.776Z,7.50
2018-12-04T16:04:12.393Z,4.80
2018-12-04T16:07:17.098Z,7.57
2018-12-04T16:10:21.677Z,5.87
2018-12-04T16:13:26.127Z,14.17
2018-12-04T16:16:30.802Z,15.67
2018-12-04T16:19:35.373Z,15.73
2018-12-04T16:22:39.993Z,15.17
2018-12-04T16:25:44.555Z,17.00
2018-12-04T16:28:50.344Z,9.50
2018-12-04T16:31:57.230Z,9.50
2018-12-04T16:35:01.817Z,7.93
2018-12-04T16:38:06.501Z,31.23
2018-12-04T16:41:11.304Z,27.27
2018-12-04T16:44:15.853Z,40.03
2018-12-04T16:47:20.576Z,21.67
2018-12-04T16:50:25.223Z,13.13
2018-12-04T16:53:29.843Z,18.37
2018-12-04T16:56:34.409Z,14.83
2018-12-04T16:59:39.121Z,25.10
2018-12-04T17:02:43.876Z,18.87
2018-12-04T17:05:48.443Z,13.97
2018-12-04T17:08:52.958Z,15.60
2018-12-04T17:11:57.536Z,18.27
2018-12-04T17:15:02.281Z,17.23
2018-12-04T17:18:07.646Z,15.17
2018-12-04T17:21:12.266Z,24.07
2018-12-04T17:24:16.905Z,25.17
2018-12-04T17:27:21.414Z,27.83
2018-12-04T17:30:26.492Z,23.70
2018-12-04T17:33:31.219Z,16.67
2018-12-04T17:36:35.886Z,14.03
2018-12-04T17:39:40.403Z,19.00
2018-12-04T17:42:44.980Z,13.73
2018-12-04T17:45:49.737Z,17.27
2018-12-04T17:48:54.225Z,24.50
2018-12-04T17:51:58.895Z,16.83
2018-12-04T17:55:03.529Z,18.60
2018-12-04T17:58:08.051Z,14.07
2018-12-04T18:01:12.702Z,15.00
2018-12-04T18:04:17.380Z,13.70
2018-12-04T18:07:22.352Z,12.67
2018-12-04T18:10:27.044Z,14.93
2018-12-04T18:13:31.719Z,13.17
2018-12-04T18:16:36.578Z,22.13
2018-12-04T18:19:41.383Z,18.27
2018-12-04T18:22:46.046Z,20.70
2018-12-04T18:25:50.737Z,11.00
2018-12-04T18:28:55.502Z,51.53
2018-12-04T18:32:00.119Z,16.43
2018-12-04T18:35:05.062Z,31.03
2018-12-04T18:38:10.265Z,29.10
2018-12-04T18:41:14.820Z,22.90
2018-12-04T18:44:20.197Z,36.73
2018-12-04T18:47:24.770Z,28.10
2018-12-04T18:50:29.622Z,31.43
2018-12-04T18:53:34.591Z,34.87
2018-12-04T18:56:39.257Z,35.50
2018-12-04T18:59:44.803Z,34.37
2018-12-04T19:03:37.477Z,36.77
2018-12-04T19:06:42.037Z,26.63
2018-12-04T19:09:46.719Z,24.10
2018-12-04T19:12:51.565Z,23.00
2018-12-04T19:15:56.307Z,22.20
2018-12-04T19:19:01.878Z,17.93
2018-12-04T19:22:06.621Z,19.80
2018-12-04T19:25:11.486Z,14.63
2018-12-04T19:28:16.196Z,18.70
2018-12-04T19:31:21.387Z,27.37
2018-12-04T19:34:26.277Z,17.93
2018-12-04T19:37:31.020Z,22.57
2018-12-04T19:40:36.435Z,19.60
2018-12-04T19:43:41.306Z,19.50
2018-12-04T19:46:45.858Z,20.47
2018-12-04T19:49:50.653Z,23.33
2018-12-04T19:52:55.397Z,27.33
2018-12-04T19:56:00.352Z,28.33
2018-12-04T20:02:19.759Z,27.87
2018-12-04T20:05:24.467Z,27.73
2018-12-04T20:08:33.321Z,31.13
2018-12-04T20:14:54.491Z,27.07
2018-12-04T20:17:59.181Z,34.20
2018-12-04T20:21:03.764Z,28.13
2018-12-04T20:24:08.450Z,25.27
2018-12-04T20:27:13.105Z,36.87
2018-12-04T20:30:17.823Z,35.20
2018-12-04T20:33:22.462Z,26.73
2018-12-04T20:36:26.967Z,27.90
2018-12-04T20:39:31.513Z,25.30
2018-12-04T20:42:36.033Z,14.03
2018-12-04T20:45:40.659Z,15.50
2018-12-04T20:48:45.247Z,18.87
2018-12-04T20:51:49.781Z,15.27
2018-12-04T20:54:54.383Z,9.30
2018-12-04T20:57:59.053Z,17.97
2018-12-04T21:01:03.759Z,8.10
2018-12-04T21:04:08.285Z,11.33
2018-12-04T21:07:12.845Z,12.17
2018-12-04T21:10:17.402Z,14.70
2018-12-04T21:13:22.164Z,18.23
2018-12-04T21:16:26.777Z,17.93
2018-12-04T21:19:31.257Z,25.73
2018-12-04T21:22:36.022Z,21.37
2018-12-04T21:30:01.800Z,38.40
2018-12-04T21:33:11.606Z,24.13
2018-12-04T21:37:20.889Z,27.03
2018-12-04T21:40:30.680Z,24.87
2018-12-04T21:43:40.463Z,29.70
2018-12-04T21:46:50.264Z,30.30
2018-12-04T21:50:01.640Z,33.13
2018-12-04T21:53:06.226Z,16.83
2018-12-04T21:56:10.842Z,16.33
2018-12-04T21:59:15.459Z,28.97
2018-12-04T22:02:20.083Z,21.17
2018-12-04T22:05:25.652Z,43.70
2018-12-04T22:08:30.200Z,18.67
2018-12-04T22:11:35.032Z,50.23
2018-12-04T22:14:39.702Z,38.77
2018-12-04T22:17:45.026Z,25.03
2018-12-04T22:20:49.631Z,30.17
2018-12-04T22:23:54.121Z,28.80
2018-12-04T22:26:59.387Z,21.53
2018-12-04T22:30:04.842Z,27.80
2018-12-04T22:33:09.784Z,54.83
2018-12-04T22:36:14.718Z,59.40
2018-12-04T22:39:19.344Z,24.40
2018-12-04T22:42:24.099Z,42.67
2018-12-04T22:45:28.928Z,31.37
2018-12-04T22:48:34.688Z,40.07
2018-12-04T22:51:39.259Z,36.20
2018-12-04T22:54:43.753Z,17.43
2018-12-04T22:57:48.646Z,15.93
2018-12-04T23:00:53.637Z,13.10
2018-12-04T23:03:58.444Z,21.83
2018-12-04T23:07:03.443Z,11.00
2018-12-04T23:10:08.608Z,8.17
2018-12-04T23:13:13.775Z,22.37
2018-12-04T23:16:19.374Z,13.13
2018-12-04T23:19:24.802Z,27.97
2018-12-04T23:22:29.892Z,31.20
2018-12-04T23:25:35.604Z,41.97
2018-12-04T23:28:40.221Z,52.23
2018-12-04T23:31:44.783Z,114.30
2018-12-04T23:34:49.870Z,128.50
2018-12-04T23:37:55.834Z,42.63
2018-12-04T23:41:00.935Z,14.53
2018-12-04T23:44:05.660Z,20.00
2018-12-04T23:47:11.014Z,63.10
2018-12-04T23:50:15.745Z,133.03
2018-12-04T23:53:20.315Z,114.90
2018-12-04T23:56:25.474Z,195.97
2018-12-04T23:59:30.669Z,170.80
